ADDS METAR Data INFO
IDs: Format: Raw Decoded Include TAF

Data at: 0029 UTC 17 Dec 2017

KRQB 170015Z AUTO 10005KT 10SM OVC017 M05/M07 A3009 RMK AO2 T10501073
KRQB 162355Z AUTO 11007KT 10SM OVC017 M05/M07 A3008 RMK AO2 T10501075 11048 21055
KRQB 162335Z AUTO 10005KT 10SM OVC017 M05/M08 A3007 RMK AO2 T10511077
KRQB 162315Z AUTO 10004KT 10SM OVC017 M05/M08 A3007 RMK AO2 T10521078
KRQB 162255Z AUTO 11005KT 10SM OVC017 M05/M08 A3006 RMK AO2 T10511078
KRQB 162235Z AUTO 12006KT 10SM OVC019 M05/M08 A3005 RMK AO2 T10511080
KRQB 162215Z AUTO 11008KT 10SM OVC019 M05/M08 A3005 RMK AO2 T10511080
KRQB 162155Z AUTO 11007KT 10SM OVC019 M05/M08 A3004 RMK AO2 T10501080
KRQB 162135Z AUTO 09008KT 10SM OVC019 M05/M08 A3003 RMK AO2 T10501080
KRQB 162116Z AUTO 09005KT 10SM OVC019 M05/M08 A3002 RMK AO2 T10501079
KRQB 162055Z AUTO 11005KT 10SM OVC019 M05/M08 A3001 RMK AO2 T10501080
KRQB 162035Z AUTO 09006KT 10SM OVC019 M05/M08 A3001 RMK AO2 T10491080
KRQB 162016Z AUTO 09006KT 10SM OVC019 M05/M08 A3000 RMK AO2 T10501080
KRQB 161955Z AUTO 10007KT 10SM OVC019 M05/M08 A2998 RMK AO2 T10491080
KRQB 161935Z AUTO 10009KT 10SM OVC019 M05/M08 A2997 RMK AO2 T10491080
KRQB 161915Z AUTO 12008KT 10SM SCT011 OVC019 M05/M08 A2997 RMK AO2 T10491079
KRQB 161855Z AUTO 11007KT 10SM SCT011 OVC019 M05/M08 A2996 RMK AO2 T10511077
KRQB 161835Z AUTO 10009KT 10SM BKN011 OVC019 M05/M08 A2996 RMK AO2 T10511076
KRQB 161815Z AUTO 11008KT 10SM BKN011 OVC019 M05/M08 A2996 RMK AO2 T10531076
KRQB 161755Z AUTO 12007KT 10SM SCT011 OVC019 M05/M08 A2996 RMK AO2 T10541076 11054 21069
KRQB 161735Z AUTO 10009G14KT 10SM SCT011 OVC021 M05/M08 A2996 RMK AO2 T10551076
KRQB 161715Z AUTO 10008KT 10SM SCT011 OVC021 M05/M07 A2995 RMK AO2 T10551075
KRQB 161655Z AUTO 12008KT 10SM SCT011 OVC021 M06/M08 A2996 RMK AO2 T10561077
KRQB 161635Z AUTO 09007KT 10SM OVC021 M06/M08 A2996 RMK AO2 T10571077
KRQB 161615Z AUTO 10004KT 10SM OVC021 M06/M08 A2995 RMK AO2 T10581076
KRQB 161555Z AUTO 11006KT 7SM OVC021 M06/M08 A2995 RMK AO2 T10601077
KRQB 161535Z AUTO 11005KT 5SM BR OVC021 M06/M08 A2995 RMK AO2 T10601078
KRQB 161515Z AUTO 12006KT 5SM BR OVC021 M06/M08 A2994 RMK AO2 T10611080
KRQB 161455Z AUTO 11005KT 7SM OVC023 M06/M08 A2993 RMK AO2 T10621080
KRQB 161435Z AUTO 09003KT 5SM BR OVC023 M06/M08 A2993 RMK AO2 T10621080
KRQB 161415Z AUTO 00000KT 10SM OVC023 M06/M08 A2992 RMK AO2 T10651082
KRQB 161355Z AUTO 08003KT 10SM OVC025 M06/M08 A2992 RMK AO2 T10651082
KRQB 161335Z AUTO 13003KT 10SM OVC027 M06/M08 A2991 RMK AO2 T10651081
KRQB 161315Z AUTO 00000KT 10SM OVC027 M06/M08 A2990 RMK AO2 T10651081
KRQB 161255Z AUTO 00000KT 10SM OVC027 M07/M08 A2989 RMK AO2 T10661081
KRQB 161235Z AUTO 00000KT 10SM OVC027 M07/M08 A2989 RMK AO2 T10661080
KRQB 161215Z AUTO 00000KT 10SM OVC029 M07/M08 A2987 RMK AO2 T10671080
KRQB 161155Z AUTO 00000KT 10SM -SN OVC029 M07/M08 A2986 RMK AO2 60001 70001 T10701080 11070 21085
KRQB 161135Z AUTO 00000KT 10SM -SN OVC031 M07/M08 A2987 RMK AO2 T10711081
KRQB 161115Z AUTO 00000KT 2 1/2SM -SN OVC033 M07/M08 A2986 RMK AO2 VIS 1/2V5 T10721082
KRQB 161055Z AUTO 00000KT 2 1/2SM -SN SCT022 OVC035 M07/M08 A2986 RMK AO2 P0001 T10721082
KRQB 161035Z AUTO 00000KT 2SM -SN OVC020 M07/M08 A2985 RMK AO2 VIS 1 1/2V2 1/2 P0001 T10721082
KRQB 161015Z AUTO 00000KT 1 3/4SM -SN OVC019 M07/M08 A2985 RMK AO2 T10731083
KRQB 160955Z AUTO 00000KT 2SM -SN OVC021 M07/M08 A2985 RMK AO2 T10751085
KRQB 160935Z AUTO 00000KT 3SM -SN SCT021 BKN030 OVC035 M07/M09 A2984 RMK AO2 T10751086
KRQB 160915Z AUTO 00000KT 1 1/2SM -SN BKN023 OVC030 M07/M09 A2984 RMK AO2 T10751086
KRQB 160855Z AUTO 00000KT 2SM -SN OVC021 M08/M09 A2983 RMK AO2 T10761087
KRQB 160835Z AUTO 00000KT 2SM -SN SCT022 OVC029 M08/M09 A2983 RMK AO2 T10781090
KRQB 160815Z AUTO 00000KT 3SM -SN SCT029 BKN038 OVC050 M08/M09 A2984 RMK AO2 T10801092
KRQB 160755Z AUTO 00000KT 4SM -SN SCT027 BKN044 OVC050 M08/M09 A2983 RMK AO2 T10801092
KRQB 160735Z AUTO 00000KT 4SM -SN SCT027 OVC035 M08/M09 A2983 RMK AO2 T10801092
KRQB 160715Z AUTO 00000KT 3SM -SN SCT027 BKN042 OVC050 M08/M09 A2983 RMK AO2 T10821095
KRQB 160655Z AUTO 00000KT 4SM -SN SCT024 BKN035 OVC042 M08/M09 A2982 RMK AO2 T10831095
KRQB 160635Z AUTO 00000KT 7SM -SN BKN022 BKN031 OVC039 M08/M10 A2982 RMK AO2 T10851097
KRQB 160615Z AUTO 00000KT 7SM -SN OVC020 M08/M09 A2982 RMK AO2 T10801095
KRQB 160555Z AUTO 00000KT 10SM OVC020 M08/M10 A2983 RMK AO2 T10831096 11065 21104 410531104
KRQB 160535Z AUTO 00000KT 10SM OVC020 M08/M09 A2983 RMK AO2 T10801092
KRQB 160515Z AUTO 00000KT 10SM OVC020 M09/M10 A2983 RMK AO2 T10861097
KRQB 160455Z AUTO 00000KT 10SM OVC022 M09/M10 A2983 RMK AO2 T10871100
KRQB 160435Z AUTO 00000KT 10SM OVC026 M09/M10 A2983 RMK AO2 T10901102
KRQB 160415Z AUTO 00000KT 10SM OVC028 M09/M11 A2983 RMK AO2 T10951107
KRQB 160355Z AUTO 00000KT 10SM OVC030 M10/M11 A2983 RMK AO2 T10961108
KRQB 160335Z AUTO 00000KT 10SM BKN034 OVC095 M10/M11 A2983 RMK AO2 T11031115
KRQB 160315Z AUTO 00000KT 10SM BKN036 BKN095 M09/M10 A2983 RMK AO2 T10921102
KRQB 160255Z AUTO 00000KT 10SM SCT095 M09/M10 A2983 RMK AO2 T10951105
KRQB 160235Z AUTO 00000KT 10SM SCT095 M09/M10 A2983 RMK AO2 T10921103
KRQB 160215Z AUTO 00000KT 10SM SCT032 OVC095 M08/M10 A2984 RMK AO2 T10851098
KRQB 160155Z AUTO 00000KT 10SM BKN032 OVC095 M08/M09 A2983 RMK AO2 T10801092
KRQB 160135Z AUTO 00000KT 10SM OVC034 M07/M09 A2982 RMK AO2 T10741092
KRQB 160115Z AUTO 00000KT 10SM OVC034 M07/M09 A2982 RMK AO2 T10741094
KRQB 160055Z AUTO 00000KT 10SM OVC036 M07/M09 A2982 RMK AO2 T10701088
KRQB 160035Z AUTO 00000KT 7SM -SN OVC034 M07/M09 A2982 RMK AO2 T10701086
KRQB 160015Z AUTO 00000KT 5SM -SN OVC034 M07/M08 A2981 RMK AO2 T10681085
KRQB 152355Z AUTO 00000KT 5SM -SN OVC036 M07/M08 A2981 RMK AO2 T10671085 11055 21067
KRQB 152335Z AUTO 27003KT 4SM -SN SCT028 OVC038 M06/M08 A2981 RMK AO2 T10651085
KRQB 152315Z AUTO 28003KT 3SM -SN SCT028 OVC040 M06/M08 A2980 RMK AO2 T10651085
KRQB 152255Z AUTO 28003KT 5SM -SN SCT027 SCT032 OVC042 M06/M08 A2980 RMK AO2 T10641085
KRQB 152235Z AUTO 28005KT 3SM -SN SCT018 BKN025 OVC042 M06/M08 A2980 RMK AO2 T10621084
KRQB 152215Z AUTO 27007KT 2 1/2SM -SN SCT018 BKN025 OVC039 M06/M08 A2979 RMK AO2 VIS 1 1/4V5 T10611085
KRQB 152155Z AUTO 27005KT 1 1/2SM -SN BKN022 BKN032 OVC037 M06/M08 A2978 RMK AO2 VIS 1/2V2 1/2 T10601085
KRQB 152135Z AUTO 27006KT 7SM -SN SCT022 OVC035 M06/M09 A2978 RMK AO2 T10581087
KRQB 152115Z AUTO 29006KT 7SM -SN SCT017 SCT028 OVC037 M06/M09 A2977 RMK AO2 T10581087
KRQB 152055Z AUTO 28006KT 3SM -SN SCT019 SCT028 OVC039 M06/M08 A2977 RMK AO2 T10581085
KRQB 152036Z AUTO 28007KT 5SM -SN SCT019 SCT028 OVC035 M06/M09 A2977 RMK AO2 T10571086
KRQB 152015Z AUTO 28007KT 10SM -SN SCT025 OVC035 M06/M09 A2977 RMK AO2 T10571090
KRQB 151955Z AUTO 28006KT 7SM -SN SCT021 SCT030 OVC035 M06/M09 A2976 RMK AO2 T10571090
KRQB 151936Z AUTO 28009KT 5SM -SN SCT019 SCT025 OVC035 M06/M09 A2976 RMK AO2 T10561090
KRQB 151915Z AUTO 28010KT 7SM -SN SCT018 SCT023 OVC035 M05/M09 A2975 RMK AO2 T10551091
KRQB 151855Z AUTO 29009KT 5SM -SN SCT018 SCT023 OVC033 M05/M09 A2975 RMK AO2 T10551091
KRQB 151835Z AUTO 29010G15KT 5SM -SN SCT021 OVC033 M05/M09 A2975 RMK AO2 T10551092
KRQB 151815Z AUTO 28010G14KT 10SM -SN SCT021 OVC033 M05/M09 A2975 RMK AO2 T10551091
KRQB 151755Z AUTO 29012G19KT 7SM SCT019 OVC031 M05/M09 A2975 RMK AO2 T10551091 11053 21071
KRQB 151735Z AUTO 29009G16KT 7SM -SN BKN019 OVC031 M05/M09 A2975 RMK AO2 T10551086
KRQB 151715Z AUTO 30009KT 4SM -SN BKN017 BKN021 OVC031 M05/M08 A2975 RMK AO2 T10551083
KRQB 151655Z AUTO 28011G15KT 5SM -SN BKN017 OVC031 M05/M08 A2975 RMK AO2 T10551082
KRQB 151635Z AUTO 28008KT 2 1/2SM -SN BKN017 BKN026 OVC032 M06/M08 A2975 RMK AO2 T10561081
KRQB 151615Z AUTO 29008KT 2 1/2SM -SN BKN017 BKN023 OVC032 M05/M08 A2975 RMK AO2 T10551084
KRQB 151555Z AUTO 29009KT 4SM -SN SCT017 SCT023 OVC032 M06/M08 A2976 RMK AO2 T10561083
KRQB 151535Z AUTO 28009G15KT 4SM -SN SCT017 SCT025 OVC034 M06/M08 A2975 RMK AO2 T10571083
KRQB 151515Z AUTO 29011G17KT 3SM -SN SCT017 BKN030 OVC044 M05/M08 A2975 RMK AO2 T10551082
KRQB 151455Z AUTO 28010KT 4SM -SN SCT013 BKN019 OVC050 M05/M08 A2975 RMK AO2 T10551081
KRQB 151435Z AUTO 29008KT 3SM -SN BKN015 BKN022 OVC070 M05/M07 A2975 RMK AO2 T10551075
KRQB 151415Z AUTO 28007KT 1 3/4SM -SN BKN010 BKN016 OVC023 M05/M07 A2975 RMK AO2 T10551072
KRQB 151355Z AUTO 26004KT 1/4SM SN OVC012 M06/M07 A2975 RMK AO2 T10601071
KRQB 151335Z AUTO 00000KT 1/2SM SN OVC009 M06/M08 A2975 RMK AO2 T10651076
KRQB 151315Z AUTO 20003KT 1/2SM SN OVC009 M07/M08 A2975 RMK AO2 T10671080
KRQB 151255Z AUTO 00000KT 1SM SN OVC009 M07/M08 A2976 RMK AO2 T10671080
KRQB 151235Z AUTO 20003KT 1SM SN OVC009 M07/M08 A2976 RMK AO2 T10701082